createdAt,value
2017-04-20T00:00:00.362Z,1031.51
2017-04-20T00:01:10.287Z,1031.51
2017-04-20T00:02:20.209Z,1031.52
2017-04-20T00:03:30.443Z,1031.5
2017-04-20T00:04:40.072Z,1031.48
2017-04-20T00:05:49.998Z,1031.51
2017-04-20T00:06:59.923Z,1031.47
2017-04-20T00:08:10.172Z,1031.47
2017-04-20T00:09:20.122Z,1031.46
2017-04-20T00:10:30.365Z,1031.42
2017-04-20T00:11:40.287Z,1031.44
2017-04-20T00:12:50.211Z,1031.47
2017-04-20T00:14:00.144Z,1031.46
2017-04-20T00:15:10.383Z,1031.46
2017-04-20T00:16:20.642Z,1031.48
2017-04-20T00:17:30.255Z,1031.43
2017-04-20T00:18:39.866Z,1031.43
2017-04-20T00:19:50.107Z,1031.43
2017-04-20T00:21:00.036Z,1031.46
2017-04-20T00:22:10.271Z,1031.48
2017-04-20T00:23:20.504Z,1031.5
2017-04-20T00:24:30.753Z,1031.52
2017-04-20T00:25:41.058Z,1031.52
2017-04-20T00:26:50.982Z,1031.51
2017-04-20T00:28:01.012Z,1031.49
2017-04-20T00:29:11.303Z,1031.52
2017-04-20T00:30:21.555Z,1031.5
2017-04-20T00:31:31.476Z,1031.53
2017-04-20T00:32:41.087Z,1031.52
2017-04-20T00:33:51.031Z,1031.53
2017-04-20T00:35:01.272Z,1031.54
2017-04-20T00:36:11.217Z,1031.47
2017-04-20T00:37:21.471Z,1031.46
2017-04-20T00:38:31.396Z,1031.51
2017-04-20T00:39:41.630Z,1031.46
2017-04-20T00:40:51.241Z,1031.42
2017-04-20T00:42:01.475Z,1031.39
2017-04-20T00:43:11.394Z,1031.37
2017-04-20T00:44:21.626Z,1031.35
2017-04-20T00:45:31.860Z,1031.33
2017-04-20T00:46:41.792Z,1031.33
2017-04-20T00:47:51.716Z,1031.28
2017-04-20T00:49:01.951Z,1031.25
2017-04-20T00:50:12.189Z,1031.21
2017-04-20T00:51:21.824Z,1031.23
2017-04-20T00:52:32.059Z,1031.21
2017-04-20T00:53:41.978Z,1031.2
2017-04-20T00:54:52.217Z,1031.18
2017-04-20T00:56:02.139Z,1031.2
2017-04-20T00:57:12.450Z,1031.21
2017-04-20T00:58:22.694Z,1031.25
2017-04-20T00:59:32.944Z,1031.26
2017-04-20T01:00:42.551Z,1031.27
2017-04-20T01:01:52.785Z,1031.26
2017-04-20T01:03:03.021Z,1031.27
2017-04-20T01:04:12.940Z,1031.26
2017-04-20T01:05:23.174Z,1031.28
2017-04-20T01:06:33.409Z,1031.3
2017-04-20T01:07:43.639Z,1031.33
2017-04-20T01:08:53.877Z,1031.31
2017-04-20T01:10:03.790Z,1031.28
2017-04-20T01:11:14.023Z,1031.29
2017-04-20T01:12:23.941Z,1031.28
2017-04-20T01:13:33.866Z,1031.27
2017-04-20T01:14:43.786Z,1031.33
2017-04-20T01:15:53.717Z,1031.28
2017-04-20T01:17:03.950Z,1031.3
2017-04-20T01:18:13.869Z,1031.37
2017-04-20T01:19:23.796Z,1031.38
2017-04-20T01:20:33.420Z,1031.37
2017-04-20T01:21:43.656Z,1031.4
2017-04-20T01:22:53.268Z,1031.46
2017-04-20T01:24:02.884Z,1031.47
2017-04-20T01:25:12.807Z,1031.47
2017-04-20T01:26:22.733Z,1031.5
2017-04-20T01:27:33.102Z,1031.5
2017-04-20T01:28:43.193Z,1031.47
2017-04-20T01:29:53.446Z,1031.46
2017-04-20T01:31:03.441Z,1031.43
2017-04-20T01:32:13.367Z,1031.38
2017-04-20T01:33:23.602Z,1031.37
2017-04-20T01:34:33.519Z,1031.37
2017-04-20T01:35:43.750Z,1031.35
2017-04-20T01:36:53.672Z,1031.32
2017-04-20T01:38:03.909Z,1031.3
2017-04-20T01:39:14.143Z,1031.31
2017-04-20T01:40:24.383Z,1031.31
2017-04-20T01:41:34.304Z,1031.32
2017-04-20T01:42:44.542Z,1031.38
2017-04-20T01:43:54.779Z,1031.37
2017-04-20T01:45:04.701Z,1031.43
2017-04-20T01:46:14.941Z,1031.47
2017-04-20T01:47:24.859Z,1031.51
2017-04-20T01:48:35.098Z,1031.52
2017-04-20T01:49:45.342Z,1031.46
2017-04-20T01:50:55.271Z,1031.45
2017-04-20T01:52:05.506Z,1031.42
2017-04-20T01:53:14.810Z,1031.38
2017-04-20T01:54:24.770Z,1031.42
2017-04-20T01:55:35.003Z,1031.38
2017-04-20T01:56:44.323Z,1031.44
2017-04-20T01:57:54.246Z,1031.48
2017-04-20T01:59:04.174Z,1031.48
2017-04-20T02:00:14.580Z,1031.54
2017-04-20T02:01:24.983Z,1031.58
2017-04-20T02:02:34.910Z,1031.62
2017-04-20T02:03:45.145Z,1031.67
2017-04-20T02:04:55.079Z,1031.62
2017-04-20T02:06:05.322Z,1031.6
2017-04-20T02:07:15.568Z,1031.62
2017-04-20T02:08:25.805Z,1031.64
2017-04-20T02:09:35.734Z,1031.63
2017-04-20T02:10:45.965Z,1031.64
2017-04-20T02:11:55.578Z,1031.66
2017-04-20T02:13:05.499Z,1031.66
2017-04-20T02:14:15.743Z,1031.66
2017-04-20T02:15:25.668Z,1031.68
2017-04-20T02:16:35.594Z,1031.7
2017-04-20T02:17:45.823Z,1031.68
2017-04-20T02:18:55.749Z,1031.72
2017-04-20T02:20:05.673Z,1031.69
2017-04-20T02:21:15.912Z,1031.75
2017-04-20T02:22:26.159Z,1031.73
2017-04-20T02:23:36.410Z,1031.73
2017-04-20T02:24:46.651Z,1031.72
2017-04-20T02:25:56.894Z,1031.72
2017-04-20T02:27:07.130Z,1031.7
2017-04-20T02:28:17.369Z,1031.74
2017-04-20T02:29:27.610Z,1031.74
2017-04-20T02:30:37.856Z,1031.8
2017-04-20T02:31:47.858Z,1031.79
2017-04-20T02:32:57.788Z,1031.8
2017-04-20T02:34:08.051Z,1031.82
2017-04-20T02:35:18.538Z,1031.82
2017-04-20T02:36:28.792Z,1031.8
2017-04-20T02:37:38.725Z,1031.8
2017-04-20T02:38:48.661Z,1031.84
2017-04-20T02:39:58.597Z,1031.87
2017-04-20T02:41:08.841Z,1031.82
2017-04-20T02:42:18.780Z,1031.82
2017-04-20T02:43:28.385Z,1031.86
2017-04-20T02:44:38.002Z,1031.88
2017-04-20T02:45:48.241Z,1031.89
2017-04-20T02:46:58.185Z,1031.91
2017-04-20T02:48:07.801Z,1031.87
2017-04-20T02:49:17.423Z,1031.87
2017-04-20T02:50:27.355Z,1031.87
2017-04-20T02:51:37.587Z,1031.9
2017-04-20T02:52:47.821Z,1031.94
2017-04-20T02:53:58.066Z,1031.96
2017-04-20T02:55:07.988Z,1031.96
2017-04-20T02:56:17.911Z,1031.99
2017-04-20T02:57:27.868Z,1031.97
2017-04-20T02:58:38.108Z,1031.93
2017-04-20T02:59:47.719Z,1031.93
2017-04-20T03:00:57.645Z,1031.87
2017-04-20T03:02:07.578Z,1031.89
2017-04-20T03:03:17.822Z,1031.89
2017-04-20T03:04:28.065Z,1031.89
2017-04-20T03:05:38.311Z,1031.88
2017-04-20T03:06:48.546Z,1031.86
2017-04-20T03:07:58.785Z,1031.86
2017-04-20T03:09:09.119Z,1031.86
2017-04-20T03:10:18.731Z,1031.84
2017-04-20T03:11:28.653Z,1031.86
2017-04-20T03:12:38.575Z,1031.88
2017-04-20T03:13:48.196Z,1031.83
2017-04-20T03:14:58.127Z,1031.81
2017-04-20T03:16:08.056Z,1031.84
2017-04-20T03:17:17.354Z,1031.8
2017-04-20T03:18:27.602Z,1031.78
2017-04-20T03:19:37.543Z,1031.79
2017-04-20T03:20:47.782Z,1031.78
2017-04-20T03:21:58.017Z,1031.74
2017-04-20T03:23:08.257Z,1031.76
2017-04-20T03:24:18.188Z,1031.75
2017-04-20T03:25:28.427Z,1031.73
2017-04-20T03:26:38.660Z,1031.72
2017-04-20T03:27:48.292Z,1031.7
2017-04-20T03:28:57.901Z,1031.73
2017-04-20T03:30:08.139Z,1031.72
2017-04-20T03:31:18.070Z,1031.7
2017-04-20T03:32:28.310Z,1031.68
2017-04-20T03:33:38.231Z,1031.68
2017-04-20T03:34:48.159Z,1031.63
2017-04-20T03:35:58.397Z,1031.62
2017-04-20T03:37:08.012Z,1031.61
2017-04-20T03:38:17.935Z,1031.62
2017-04-20T03:39:28.181Z,1031.6
2017-04-20T03:40:38.118Z,1031.58
2017-04-20T03:41:47.727Z,1031.57
2017-04-20T03:42:57.965Z,1031.53
2017-04-20T03:44:08.199Z,1031.51
2017-04-20T03:45:18.126Z,1031.54
2017-04-20T03:46:28.227Z,1031.59
2017-04-20T03:47:38.163Z,1031.58
2017-04-20T03:48:47.856Z,1031.59
2017-04-20T03:49:58.206Z,1031.58
2017-04-20T03:51:07.626Z,1031.61
2017-04-20T03:52:17.577Z,1031.63
2017-04-20T03:53:27.506Z,1031.64
2017-04-20T03:54:37.431Z,1031.59
2017-04-20T03:55:47.679Z,1031.59
2017-04-20T03:56:57.931Z,1031.55
2017-04-20T03:58:07.233Z,1031.58
2017-04-20T03:59:16.536Z,1031.6
2017-04-20T04:00:26.467Z,1031.62
2017-04-20T04:01:36.438Z,1031.64
2017-04-20T04:02:46.669Z,1031.64
2017-04-20T04:03:56.916Z,1031.68
2017-04-20T04:05:07.178Z,1031.66
2017-04-20T04:06:16.478Z,1031.7
2017-04-20T04:07:26.403Z,1031.7
2017-04-20T04:08:36.645Z,1031.71
2017-04-20T04:09:46.275Z,1031.73
2017-04-20T04:10:56.510Z,1031.77
2017-04-20T04:12:06.743Z,1031.8
2017-04-20T04:13:16.980Z,1031.81
2017-04-20T04:14:26.903Z,1031.77
2017-04-20T04:15:36.833Z,1031.77
2017-04-20T04:16:46.760Z,1031.82
2017-04-20T04:17:57.015Z,1031.81
2017-04-20T04:19:07.251Z,1031.79
2017-04-20T04:20:17.486Z,1031.85
2017-04-20T04:21:27.722Z,1031.86
2017-04-20T04:22:37.959Z,1031.87
2017-04-20T04:23:47.752Z,1031.91
2017-04-20T04:24:57.818Z,1031.9
2017-04-20T04:26:08.077Z,1031.92
2017-04-20T04:27:17.748Z,1031.93
2017-04-20T04:28:27.362Z,1031.95
2017-04-20T04:29:37.927Z,1031.9
2017-04-20T04:30:48.163Z,1031.9
2017-04-20T04:31:58.400Z,1031.93
2017-04-20T04:33:08.639Z,1031.88
2017-04-20T04:34:18.874Z,1031.91
2017-04-20T04:35:29.112Z,1032
2017-04-20T04:36:39.038Z,1031.95
2017-04-20T04:37:48.651Z,1031.97
2017-04-20T04:38:58.267Z,1032.04
2017-04-20T04:40:08.191Z,1032.06
2017-04-20T04:41:17.802Z,1032.04
2017-04-20T04:42:27.746Z,1032.03
2017-04-20T04:43:37.359Z,1032.02
2017-04-20T04:44:47.283Z,1031.98
2017-04-20T04:45:57.516Z,1031.92
2017-04-20T04:47:07.756Z,1031.92
2017-04-20T04:48:17.687Z,1031.94
2017-04-20T04:49:27.610Z,1031.96
2017-04-20T04:50:37.544Z,1031.97
2017-04-20T04:51:47.788Z,1031.96
2017-04-20T04:52:57.706Z,1031.95
2017-04-20T04:54:07.948Z,1032
2017-04-20T04:55:17.557Z,1031.97
2017-04-20T04:56:27.166Z,1032.03
2017-04-20T04:57:37.087Z,1031.99
2017-04-20T04:58:46.698Z,1032.01
2017-04-20T04:59:56.001Z,1032.02
2017-04-20T05:01:05.930Z,1031.97
2017-04-20T05:02:16.188Z,1032
2017-04-20T05:03:26.432Z,1031.99
2017-04-20T05:04:36.375Z,1032.01
2017-04-20T05:05:46.610Z,1032.05
2017-04-20T05:06:56.534Z,1032.11
2017-04-20T05:08:06.324Z,1032.15
2017-04-20T05:09:16.407Z,1032.16
2017-04-20T05:10:26.645Z,1032.07
2017-04-20T05:11:36.882Z,1032.09
2017-04-20T05:12:47.126Z,1032.06
2017-04-20T05:13:56.732Z,1032.06
2017-04-20T05:15:06.656Z,1032.05
2017-04-20T05:16:16.898Z,1032.09
2017-04-20T05:17:27.139Z,1032.05
2017-04-20T05:18:37.374Z,1032.08
2017-04-20T05:19:47.605Z,1032.09
2017-04-20T05:20:57.840Z,1032.05
2017-04-20T05:22:08.077Z,1032.03
2017-04-20T05:23:18.322Z,1032.08
2017-04-20T05:24:28.248Z,1032.06
2017-04-20T05:25:38.482Z,1032.05
2017-04-20T05:26:48.716Z,1032.07
2017-04-20T05:27:58.323Z,1032.07
2017-04-20T05:29:08.558Z,1032.05
2017-04-20T05:30:18.484Z,1032.11
2017-04-20T05:31:28.748Z,1032.07
2017-04-20T05:32:38.982Z,1032.07
2017-04-20T05:33:48.910Z,1032.09
2017-04-20T05:34:59.153Z,1032.07
2017-04-20T05:36:09.080Z,1032.11
2017-04-20T05:37:19.013Z,1032.1
2017-04-20T05:38:28.943Z,1032.09
2017-04-20T05:39:38.868Z,1032.11
2017-04-20T05:40:48.813Z,1032.13
2017-04-20T05:41:58.740Z,1032.14
2017-04-20T05:43:09.007Z,1032.15
2017-04-20T05:44:18.933Z,1032.16
2017-04-20T05:45:29.167Z,1032.14
2017-04-20T05:46:39.671Z,1032.13
2017-04-20T05:47:49.626Z,1032.13
2017-04-20T05:48:59.547Z,1032.14
2017-04-20T05:50:09.530Z,1032.17
2017-04-20T05:51:19.153Z,1032.15
2017-04-20T05:52:28.762Z,1032.12
2017-04-20T05:53:38.715Z,1032.16
2017-04-20T05:54:48.952Z,1032.13
2017-04-20T05:55:58.875Z,1032.16
2017-04-20T05:57:08.804Z,1032.14
2017-04-20T05:58:18.727Z,1032.17
2017-04-20T05:59:28.962Z,1032.18
2017-04-20T06:00:38.921Z,1032.19
2017-04-20T06:01:48.847Z,1032.18
2017-04-20T06:02:59.082Z,1032.17
2017-04-20T06:04:09.319Z,1032.15
2017-04-20T06:05:19.260Z,1032.16
2017-04-20T06:06:29.185Z,1032.15
2017-04-20T06:07:39.425Z,1032.16
2017-04-20T06:08:49.348Z,1032.2
2017-04-20T06:09:59.586Z,1032.16
2017-04-20T06:11:09.828Z,1032.18
2017-04-20T06:12:19.754Z,1032.17
2017-04-20T06:13:29.681Z,1032.18
2017-04-20T06:14:39.918Z,1032.2
2017-04-20T06:15:49.841Z,1032.2
2017-04-20T06:16:59.459Z,1032.22
2017-04-20T06:18:09.384Z,1032.24
2017-04-20T06:19:19.625Z,1032.28
2017-04-20T06:20:29.864Z,1032.29
2017-04-20T06:21:40.099Z,1032.26
2017-04-20T06:22:50.355Z,1032.28
2017-04-20T06:24:00.596Z,1032.28
2017-04-20T06:25:10.532Z,1032.29
2017-04-20T06:26:20.461Z,1032.28
2017-04-20T06:27:30.786Z,1032.28
2017-04-20T06:28:41.255Z,1032.26
2017-04-20T06:29:51.134Z,1032.25
2017-04-20T06:31:01.371Z,1032.28
2017-04-20T06:32:11.322Z,1032.27
2017-04-20T06:33:21.240Z,1032.29
2017-04-20T06:34:30.866Z,1032.3
2017-04-20T06:35:41.104Z,1032.29
2017-04-20T06:36:51.351Z,1032.29
2017-04-20T06:38:01.592Z,1032.29
2017-04-20T06:39:11.201Z,1032.26
2017-04-20T06:40:21.122Z,1032.26
2017-04-20T06:41:30.731Z,1032.25
2017-04-20T06:42:40.651Z,1032.24
2017-04-20T06:43:50.597Z,1032.23
2017-04-20T06:45:00.524Z,1032.23
2017-04-20T06:46:09.820Z,1032.27
2017-04-20T06:47:19.745Z,1032.25
2017-04-20T06:48:29.992Z,1032.29
2017-04-20T06:49:39.915Z,1032.28
2017-04-20T06:50:49.836Z,1032.29
2017-04-20T06:51:59.758Z,1032.3
2017-04-20T06:53:09.691Z,1032.27
2017-04-20T06:54:19.929Z,1032.28
2017-04-20T06:55:30.168Z,1032.28
2017-04-20T06:56:40.414Z,1032.26
2017-04-20T06:57:50.335Z,1032.28
2017-04-20T06:59:00.261Z,1032.29
2017-04-20T07:00:10.502Z,1032.3
2017-04-20T07:01:20.429Z,1032.33
2017-04-20T07:02:30.670Z,1032.28
2017-04-20T07:03:40.911Z,1032.32
2017-04-20T07:04:51.143Z,1032.32
2017-04-20T07:06:00.755Z,1032.34
2017-04-20T07:07:10.367Z,1032.38
2017-04-20T07:08:20.609Z,1032.34
2017-04-20T07:09:30.534Z,1032.35
2017-04-20T07:10:40.774Z,1032.33
2017-04-20T07:11:51.025Z,1032.36
2017-04-20T07:13:01.435Z,1032.38
2017-04-20T07:14:11.582Z,1032.37
2017-04-20T07:15:21.645Z,1032.35
2017-04-20T07:16:31.263Z,1032.39
2017-04-20T07:17:41.722Z,1032.38
2017-04-20T07:18:51.648Z,1032.39
2017-04-20T07:20:01.891Z,1032.34
2017-04-20T07:21:11.817Z,1032.34
2017-04-20T07:22:22.054Z,1032.38
2017-04-20T07:23:32.294Z,1032.36
2017-04-20T07:24:42.532Z,1032.37
2017-04-20T07:25:52.176Z,1032.36
2017-04-20T07:27:02.097Z,1032.33
2017-04-20T07:28:11.704Z,1032.34
2017-04-20T07:29:21.634Z,1032.35
2017-04-20T07:30:31.880Z,1032.36
2017-04-20T07:31:42.145Z,1032.35
2017-04-20T07:32:52.391Z,1032.33
2017-04-20T07:34:02.310Z,1032.31
2017-04-20T07:35:12.231Z,1032.29
2017-04-20T07:36:22.473Z,1032.32
2017-04-20T07:37:32.412Z,1032.31
2017-04-20T07:38:41.716Z,1032.32
2017-04-20T07:39:51.947Z,1032.28
2017-04-20T07:41:01.553Z,1032.28
2017-04-20T07:42:11.165Z,1032.23
2017-04-20T07:43:20.784Z,1032.26
2017-04-20T07:44:30.724Z,1032.26
2017-04-20T07:45:40.338Z,1032.25
2017-04-20T07:46:50.580Z,1032.27
2017-04-20T07:48:00.500Z,1032.25
2017-04-20T07:49:10.118Z,1032.23
2017-04-20T07:50:19.724Z,1032.25
2017-04-20T07:51:29.648Z,1032.28
2017-04-20T07:52:39.584Z,1032.28
2017-04-20T07:53:49.190Z,1032.23
2017-04-20T07:54:58.802Z,1032.26
2017-04-20T07:56:08.614Z,1032.27
2017-04-20T07:57:18.840Z,1032.25
2017-04-20T07:58:29.080Z,1032.24
2017-04-20T07:59:38.821Z,1032.24
2017-04-20T08:00:48.758Z,1032.21
2017-04-20T08:01:58.993Z,1032.25
2017-04-20T08:03:08.921Z,1032.22
2017-04-20T08:04:18.226Z,1032.22
2017-04-20T08:05:27.844Z,1032.22
2017-04-20T08:06:37.776Z,1032.22
2017-04-20T08:07:47.391Z,1032.21
2017-04-20T08:08:57.339Z,1032.17
2017-04-20T08:10:07.270Z,1032.2
2017-04-20T08:11:17.506Z,1032.17
2017-04-20T08:12:27.432Z,1032.18
2017-04-20T08:13:37.666Z,1032.21
2017-04-20T08:14:47.619Z,1032.2
2017-04-20T08:15:57.544Z,1032.22
2017-04-20T08:17:07.478Z,1032.18
2017-04-20T08:18:17.446Z,1032.21
2017-04-20T08:19:27.690Z,1032.21
2017-04-20T08:20:36.986Z,1032.15
2017-04-20T08:21:47.248Z,1032.17
2017-04-20T08:22:56.856Z,1032.16
2017-04-20T08:24:07.087Z,1032.18
2017-04-20T08:25:17.010Z,1032.17
2017-04-20T08:26:27.254Z,1032.16
2017-04-20T08:27:37.192Z,1032.11
2017-04-20T08:28:46.801Z,1032.12
2017-04-20T08:29:57.038Z,1032.14
2017-04-20T08:31:06.659Z,1032.12
2017-04-20T08:32:16.584Z,1032.11
2017-04-20T08:33:26.507Z,1032.07
2017-04-20T08:34:36.428Z,1032.04
2017-04-20T08:35:46.046Z,1032.09
2017-04-20T08:36:56.315Z,1032.08
2017-04-20T08:38:06.240Z,1032.06
2017-04-20T08:39:15.667Z,1032.07
2017-04-20T08:40:25.905Z,1032.04
2017-04-20T08:41:36.115Z,1032.06
2017-04-20T08:42:45.728Z,1032.04
2017-04-20T08:43:55.554Z,1032.06
2017-04-20T08:45:05.480Z,1032.07
2017-04-20T08:46:15.111Z,1032.07
2017-04-20T08:47:25.031Z,1032.09
2017-04-20T08:48:34.645Z,1032.1
2017-04-20T08:49:43.948Z,1032.09
2017-04-20T08:50:53.560Z,1032.06
2017-04-20T08:52:03.168Z,1032.08
2017-04-20T08:53:13.097Z,1032.11
2017-04-20T08:54:23.342Z,1032.1
2017-04-20T08:55:33.265Z,1032.1
2017-04-20T08:56:43.193Z,1032.07
2017-04-20T08:57:53.148Z,1032.08
2017-04-20T08:59:03.390Z,1032.06
2017-04-20T09:00:13.317Z,1032.08
2017-04-20T09:01:23.555Z,1032.09
2017-04-20T09:02:33.795Z,1032.08
2017-04-20T09:03:42.780Z,1032.04
2017-04-20T09:04:52.389Z,1032.03
2017-04-20T09:06:02.632Z,1032.06
2017-04-20T09:07:11.928Z,1032.04
2017-04-20T09:08:22.158Z,1031.99
2017-04-20T09:09:32.084Z,1032.02
2017-04-20T09:10:41.390Z,1032.03
2017-04-20T09:11:51.311Z,1032.02
2017-04-20T09:13:01.244Z,1032.04
2017-04-20T09:14:11.161Z,1032.04
2017-04-20T09:15:21.095Z,1032.04
2017-04-20T09:16:31.016Z,1032.03
2017-04-20T09:17:40.629Z,1032.01
2017-04-20T09:18:50.558Z,1032.02
2017-04-20T09:20:00.797Z,1031.99
2017-04-20T09:21:10.413Z,1031.97
2017-04-20T09:22:20.344Z,1032.04
2017-04-20T09:23:30.404Z,1032.02
2017-04-20T09:24:40.327Z,1032.02
2017-04-20T09:25:50.565Z,1032
2017-04-20T09:27:00.265Z,1031.97
2017-04-20T09:28:09.964Z,1032.01
2017-04-20T09:29:19.582Z,1032.03
2017-04-20T09:30:29.631Z,1032.03
2017-04-20T09:31:39.555Z,1032.02
2017-04-20T09:32:49.535Z,1032.03
2017-04-20T09:33:59.456Z,1032.01
2017-04-20T09:35:08.761Z,1031.96
2017-04-20T09:36:18.691Z,1031.92
2017-04-20T09:37:28.926Z,1031.98
2017-04-20T09:38:39.163Z,1031.92
2017-04-20T09:39:48.777Z,1031.9
2017-04-20T09:40:58.706Z,1031.93
2017-04-20T09:42:08.008Z,1031.91
2017-04-20T09:43:17.937Z,1031.87
2017-04-20T09:44:27.552Z,1031.89
2017-04-20T09:45:36.543Z,1031.87
2017-04-20T09:46:46.779Z,1031.87
2017-04-20T09:47:56.699Z,1031.84
2017-04-20T09:49:06.631Z,1031.84
2017-04-20T09:50:16.869Z,1031.79
2017-04-20T09:51:26.171Z,1031.78
2017-04-20T09:52:35.790Z,1031.81
2017-04-20T09:53:45.407Z,1031.78
2017-04-20T09:54:55.642Z,1031.83
2017-04-20T09:56:05.900Z,1031.81
2017-04-20T09:57:15.824Z,1031.81
2017-04-20T09:58:25.434Z,1031.78
2017-04-20T09:59:35.040Z,1031.76
2017-04-20T10:00:45.282Z,1031.77
2017-04-20T10:01:55.518Z,1031.71
2017-04-20T10:03:05.444Z,1031.7
2017-04-20T10:04:15.366Z,1031.73
2017-04-20T10:05:24.982Z,1031.67
2017-04-20T10:06:34.908Z,1031.62
2017-04-20T10:07:44.514Z,1031.64
2017-04-20T10:08:54.123Z,1031.65
2017-04-20T10:10:03.772Z,1031.67
2017-04-20T10:11:13.697Z,1031.68
2017-04-20T10:12:23.635Z,1031.69
2017-04-20T10:13:33.827Z,1031.65
2017-04-20T10:14:44.070Z,1031.61
2017-04-20T10:15:54.305Z,1031.61
2017-04-20T10:17:03.604Z,1031.63
2017-04-20T10:18:12.907Z,1031.6
2017-04-20T10:19:22.538Z,1031.57
2017-04-20T10:20:32.778Z,1031.55
2017-04-20T10:21:42.084Z,1031.55
2017-04-20T10:22:52.015Z,1031.55
2017-04-20T10:24:01.631Z,1031.55
2017-04-20T10:25:10.948Z,1031.49
2017-04-20T10:26:21.190Z,1031.52
2017-04-20T10:27:30.804Z,1031.48
2017-04-20T10:28:40.732Z,1031.49
2017-04-20T10:29:50.034Z,1031.5
2017-04-20T10:30:58.702Z,1031.49
2017-04-20T10:32:08.312Z,1031.51
2017-04-20T10:33:18.263Z,1031.52
2017-04-20T10:34:28.194Z,1031.51
2017-04-20T10:35:38.119Z,1031.47
2017-04-20T10:36:47.412Z,1031.44
2017-04-20T10:37:57.337Z,1031.4
2017-04-20T10:39:07.264Z,1031.38
2017-04-20T10:40:16.879Z,1031.37
2017-04-20T10:41:26.494Z,1031.35
2017-04-20T10:42:36.102Z,1031.32
2017-04-20T10:43:46.044Z,1031.3
2017-04-20T10:44:55.655Z,1031.28
2017-04-20T10:46:05.894Z,1031.32
2017-04-20T10:47:16.139Z,1031.31
2017-04-20T10:48:26.071Z,1031.33
2017-04-20T10:49:35.996Z,1031.32
2017-04-20T10:50:45.298Z,1031.27
2017-04-20T10:51:55.536Z,1031.26
2017-04-20T10:53:05.143Z,1031.21
2017-04-20T10:54:15.064Z,1031.27
2017-04-20T10:55:24.678Z,1031.19
2017-04-20T10:56:33.973Z,1031.16
2017-04-20T10:57:43.906Z,1031.18
2017-04-20T10:58:53.211Z,1031.17
2017-04-20T11:00:03.443Z,1031.21
2017-04-20T11:01:13.684Z,1031.19
2017-04-20T11:02:22.674Z,1031.2
2017-04-20T11:03:32.925Z,1031.16
2017-04-20T11:04:42.257Z,1031.14
2017-04-20T11:05:52.489Z,1031.13
2017-04-20T11:07:01.802Z,1031.12
2017-04-20T11:08:11.102Z,1031.15
2017-04-20T11:09:20.084Z,1031.14
2017-04-20T11:10:29.069Z,1031.07
2017-04-20T11:11:38.368Z,1031.03
2017-04-20T11:12:47.996Z,1031.04
2017-04-20T11:13:57.295Z,1030.99
2017-04-20T11:15:06.593Z,1031.05
2017-04-20T11:16:15.895Z,1030.99
2017-04-20T11:17:25.818Z,1030.97
2017-04-20T11:18:35.431Z,1030.97
2017-04-20T11:19:45.680Z,1030.92
2017-04-20T11:20:55.918Z,1030.94
2017-04-20T11:22:05.857Z,1030.91
2017-04-20T11:23:16.103Z,1030.99
2017-04-20T11:24:25.715Z,1030.96
2017-04-20T11:25:35.329Z,1030.9
2017-04-20T11:26:45.270Z,1030.91
2017-04-20T11:27:54.886Z,1030.88
2017-04-20T11:29:04.180Z,1030.9
2017-04-20T11:30:14.101Z,1030.86
2017-04-20T11:31:24.028Z,1030.89
2017-04-20T11:32:33.958Z,1030.87
2017-04-20T11:33:43.878Z,1030.86
2017-04-20T11:34:53.796Z,1030.89
2017-04-20T11:36:03.727Z,1030.88
2017-04-20T11:37:13.023Z,1030.9
2017-04-20T11:38:22.632Z,1030.85
2017-04-20T11:39:32.559Z,1030.86
2017-04-20T11:40:42.498Z,1030.81
2017-04-20T11:41:52.428Z,1030.83
2017-04-20T11:43:02.035Z,1030.82
2017-04-20T11:44:11.645Z,1030.78
2017-04-20T11:45:21.881Z,1030.77
2017-04-20T11:46:31.807Z,1030.77
2017-04-20T11:47:41.424Z,1030.77
2017-04-20T11:48:50.914Z,1030.74
2017-04-20T11:50:00.834Z,1030.75
2017-04-20T11:51:10.883Z,1030.77
2017-04-20T11:52:21.122Z,1030.75
2017-04-20T11:53:31.045Z,1030.74
2017-04-20T11:54:40.654Z,1030.72
2017-04-20T11:55:50.526Z,1030.74
2017-04-20T11:56:59.851Z,1030.68
2017-04-20T11:58:09.516Z,1030.65
2017-04-20T11:59:19.805Z,1030.68
2017-04-20T12:00:29.104Z,1030.66
2017-04-20T12:01:38.712Z,1030.65
2017-04-20T12:02:48.014Z,1030.67
2017-04-20T12:03:57.951Z,1030.67
2017-04-20T12:05:07.562Z,1030.7
2017-04-20T12:06:17.485Z,1030.68
2017-04-20T12:07:26.779Z,1030.65
2017-04-20T12:08:36.708Z,1030.69
2017-04-20T12:09:46.636Z,1030.69
2017-04-20T12:10:56.869Z,1030.67
2017-04-20T12:12:06.791Z,1030.67
2017-04-20T12:13:16.712Z,1030.65
2017-04-20T12:14:26.634Z,1030.68
2017-04-20T12:15:36.253Z,1030.66
2017-04-20T12:16:45.567Z,1030.63
2017-04-20T12:17:55.503Z,1030.57
2017-04-20T12:19:05.112Z,1030.56
2017-04-20T12:20:15.041Z,1030.59
2017-04-20T12:21:24.967Z,1030.53
2017-04-20T12:22:34.578Z,1030.56
2017-04-20T12:23:44.815Z,1030.53
2017-04-20T12:24:54.470Z,1030.5
2017-04-20T12:26:03.770Z,1030.51
2017-04-20T12:27:13.694Z,1030.49
2017-04-20T12:28:23.619Z,1030.54
2017-04-20T12:29:33.867Z,1030.51
2017-04-20T12:30:43.797Z,1030.49
2017-04-20T12:31:53.412Z,1030.5
2017-04-20T12:33:03.330Z,1030.5
2017-04-20T12:34:13.254Z,1030.45
2017-04-20T12:35:22.859Z,1030.47
2017-04-20T12:36:33.093Z,1030.43
2017-04-20T12:37:43.025Z,1030.45
2017-04-20T12:38:53.292Z,1030.43
2017-04-20T12:40:03.528Z,1030.42
2017-04-20T12:41:12.820Z,1030.41
2017-04-20T12:42:22.985Z,1030.4
2017-04-20T12:43:33.344Z,1030.4
2017-04-20T12:44:43.263Z,1030.36
2017-04-20T12:45:53.985Z,1030.35
2017-04-20T12:47:04.219Z,1030.36
2017-04-20T12:48:13.850Z,1030.38
2017-04-20T12:49:23.773Z,1030.33
2017-04-20T12:50:34.016Z,1030.31
2017-04-20T12:51:44.259Z,1030.3
2017-04-20T12:52:54.510Z,1030.34
2017-04-20T12:54:04.436Z,1030.31
2017-04-20T12:55:14.364Z,1030.33
2017-04-20T12:56:24.604Z,1030.26
2017-04-20T12:57:34.617Z,1030.26
2017-04-20T12:58:44.539Z,1030.28
2017-04-20T12:59:54.174Z,1030.18
2017-04-20T13:01:04.414Z,1030.21
2017-04-20T13:02:14.345Z,1030.19
2017-04-20T13:03:23.968Z,1030.16
2017-04-20T13:04:33.897Z,1030.17
2017-04-20T13:05:43.821Z,1030.16
2017-04-20T13:06:53.757Z,1030.11
2017-04-20T13:08:03.686Z,1030.11
2017-04-20T13:09:13.922Z,1030.07
2017-04-20T13:10:24.162Z,1030.05
2017-04-20T13:11:34.392Z,1030.05
2017-04-20T13:12:44.005Z,1030.05
2017-04-20T13:13:54.241Z,1030.04
2017-04-20T13:15:04.162Z,1030
2017-04-20T13:16:13.467Z,1030.01
2017-04-20T13:17:23.714Z,1029.94
2017-04-20T13:18:33.953Z,1029.94
2017-04-20T13:19:43.901Z,1029.92
2017-04-20T13:20:54.135Z,1029.92
2017-04-20T13:22:04.064Z,1029.94
2017-04-20T13:23:14.000Z,1029.92
2017-04-20T13:24:23.927Z,1029.92
2017-04-20T13:25:34.164Z,1029.94
2017-04-20T13:26:44.090Z,1029.94
2017-04-20T13:27:53.183Z,1029.91
2017-04-20T13:29:02.794Z,1029.91
2017-04-20T13:30:12.762Z,1029.89
2017-04-20T13:31:22.529Z,1029.88
2017-04-20T13:32:32.773Z,1029.9
2017-04-20T13:33:42.695Z,1029.87
2017-04-20T13:34:52.938Z,1029.85
2017-04-20T13:36:02.546Z,1029.81
2017-04-20T13:37:12.472Z,1029.77
2017-04-20T13:38:22.710Z,1029.82
2017-04-20T13:39:32.655Z,1029.8
2017-04-20T13:40:42.270Z,1029.77
2017-04-20T13:41:51.562Z,1029.73
2017-04-20T13:43:01.491Z,1029.7
2017-04-20T13:44:11.423Z,1029.73
2017-04-20T13:45:21.660Z,1029.76
2017-04-20T13:46:31.900Z,1029.7
2017-04-20T13:47:41.825Z,1029.73
2017-04-20T13:48:52.072Z,1029.71
2017-04-20T13:50:02.005Z,1029.73
2017-04-20T13:51:12.262Z,1029.73
2017-04-20T13:52:21.870Z,1029.7
2017-04-20T13:53:31.479Z,1029.71
2017-04-20T13:54:41.086Z,1029.72
2017-04-20T13:55:51.325Z,1029.69
2017-04-20T13:57:01.563Z,1029.69
2017-04-20T13:58:11.491Z,1029.67
2017-04-20T13:59:21.102Z,1029.66
2017-04-20T14:00:31.022Z,1029.68
2017-04-20T14:01:41.258Z,1029.65
2017-04-20T14:02:50.873Z,1029.62
2017-04-20T14:04:00.797Z,1029.64
2017-04-20T14:05:10.117Z,1029.64
2017-04-20T14:06:20.040Z,1029.62
2017-04-20T14:07:30.282Z,1029.62
2017-04-20T14:08:40.523Z,1029.62